createdAt,value
2022-10-21T00:03:06.681Z,5.75
2022-10-21T00:08:05.705Z,5.28
2022-10-21T00:13:05.914Z,7.65
2022-10-21T00:18:05.091Z,7.15
2022-10-21T00:23:03.860Z,5.38
2022-10-21T00:28:02.618Z,5.35
2022-10-21T00:33:03.389Z,3.95
2022-10-21T00:38:02.291Z,5.68
2022-10-21T00:43:01.566Z,2.03
2022-10-21T00:48:03.938Z,9.30
2022-10-21T00:53:04.762Z,15.50
2022-10-21T00:58:04.781Z,3.00
2022-10-21T01:03:05.096Z,2.80
2022-10-21T01:08:03.778Z,6.32
2022-10-21T01:13:16.447Z,4.82
2022-10-21T01:18:22.724Z,5.23
2022-10-21T01:23:53.770Z,3.97
2022-10-21T01:29:07.319Z,3.03
2022-10-21T01:39:24.100Z,3.78
2022-10-21T01:44:28.314Z,4.80
2022-10-21T01:49:33.666Z,2.78
2022-10-21T01:54:36.567Z,4.50
2022-10-21T01:59:36.691Z,4.00
2022-10-21T02:04:39.352Z,8.02
2022-10-21T02:09:38.188Z,4.50
2022-10-21T02:14:40.852Z,3.00
2022-10-21T02:19:40.954Z,2.70
2022-10-21T02:24:46.093Z,4.30
2022-10-21T02:29:47.357Z,2.78
2022-10-21T02:35:00.107Z,3.05
2022-10-21T02:40:06.078Z,5.43
2022-10-21T02:45:05.786Z,3.17
2022-10-21T02:50:06.689Z,2.30
2022-10-21T02:55:06.085Z,4.60
2022-10-21T03:00:06.420Z,2.17
2022-10-21T03:05:07.379Z,3.72
2022-10-21T03:10:07.129Z,3.83
2022-10-21T03:15:06.796Z,3.53
2022-10-21T03:20:07.690Z,5.68
2022-10-21T03:25:07.477Z,3.05
2022-10-21T03:30:07.447Z,10.05
2022-10-21T03:35:09.033Z,3.67
2022-10-21T03:40:12.271Z,5.40
2022-10-21T03:45:12.641Z,4.05
2022-10-21T03:50:15.095Z,3.55
2022-10-21T03:55:20.907Z,2.88
2022-10-21T04:00:20.307Z,6.43
2022-10-21T04:05:20.542Z,5.75
2022-10-21T04:10:19.448Z,3.97
2022-10-21T04:15:18.211Z,9.60
2022-10-21T04:20:17.062Z,6.22
2022-10-21T04:25:17.297Z,8.45
2022-10-21T04:30:16.055Z,4.70
2022-10-21T04:35:14.959Z,3.03
2022-10-21T04:40:13.994Z,7.18
2022-10-21T04:45:23.963Z,6.70
2022-10-21T04:50:23.101Z,6.38
2022-10-21T04:55:23.871Z,6.22
2022-10-21T05:00:24.927Z,11.05
2022-10-21T05:05:25.663Z,13.65
2022-10-21T05:10:25.676Z,13.65
2022-10-21T05:15:26.208Z,10.85
2022-10-21T05:20:25.094Z,6.82
2022-10-21T05:25:24.237Z,8.98
2022-10-21T05:30:23.005Z,7.70
2022-10-21T05:35:23.217Z,4.97
2022-10-21T05:40:22.035Z,7.20
2022-10-21T05:45:21.211Z,8.30
2022-10-21T05:50:20.153Z,9.77
2022-10-21T05:55:23.312Z,55.95
2022-10-21T06:00:27.963Z,30.90
2022-10-21T06:05:31.730Z,7.35
2022-10-21T06:10:31.931Z,13.10
2022-10-21T06:15:30.817Z,11.32
2022-10-21T06:20:31.655Z,8.75
2022-10-21T06:25:32.442Z,6.50
2022-10-21T06:30:31.786Z,10.23
2022-10-21T06:35:38.336Z,7.97
2022-10-21T06:40:38.897Z,9.32
2022-10-21T06:45:40.294Z,11.20
2022-10-21T06:50:42.867Z,6.85
2022-10-21T06:55:44.892Z,7.90
2022-10-21T07:00:44.712Z,9.43
2022-10-21T07:05:43.674Z,11.25
2022-10-21T07:10:45.342Z,11.85
2022-10-21T07:15:44.713Z,7.32
2022-10-21T07:20:43.822Z,5.32
2022-10-21T07:25:44.059Z,5.28
2022-10-21T07:30:43.537Z,10.20
2022-10-21T07:35:42.679Z,6.18
2022-10-21T07:40:43.953Z,12.57
2022-10-21T07:45:44.186Z,6.43
2022-10-21T07:50:43.171Z,5.78
2022-10-21T07:55:43.799Z,6.60
2022-10-21T08:00:44.873Z,11.75
2022-10-21T08:05:43.690Z,5.03
2022-10-21T08:10:44.037Z,6.15
2022-10-21T08:15:43.806Z,4.82
2022-10-21T08:20:43.614Z,5.47
2022-10-21T08:25:49.709Z,7.50
2022-10-21T08:30:48.823Z,6.20
2022-10-21T08:35:47.733Z,4.60
2022-10-21T08:40:51.165Z,4.95
2022-10-21T08:45:56.815Z,6.65
2022-10-21T08:50:58.742Z,4.93
2022-10-21T08:56:05.399Z,4.33
2022-10-21T09:01:06.999Z,6.47
2022-10-21T09:06:18.822Z,5.38
2022-10-21T09:11:30.046Z,7.43
2022-10-21T09:16:41.908Z,9.55
2022-10-21T09:22:05.554Z,5.10
2022-10-21T09:27:31.976Z,9.18
2022-10-21T09:32:36.333Z,6.53
2022-10-21T09:37:41.298Z,7.70
2022-10-21T09:42:47.364Z,8.77
2022-10-21T09:47:53.883Z,9.38
2022-10-21T09:52:59.392Z,8.13
2022-10-21T09:58:01.596Z,8.20
2022-10-21T10:03:00.343Z,6.40
2022-10-21T10:07:59.150Z,4.85
2022-10-21T10:13:00.810Z,7.38
2022-10-21T10:23:19.723Z,6.18
2022-10-21T10:28:24.998Z,5.88
2022-10-21T10:33:25.991Z,6.65
2022-10-21T10:38:28.572Z,5.20
2022-10-21T10:43:31.826Z,7.68
2022-10-21T10:48:37.389Z,9.48
2022-10-21T10:53:37.700Z,8.88
2022-10-21T10:58:43.309Z,3.83
2022-10-21T11:03:47.365Z,11.75
2022-10-21T11:08:51.647Z,8.13
2022-10-21T11:13:52.863Z,5.35
2022-10-21T11:18:59.055Z,8.18
2022-10-21T11:24:39.464Z,6.90
2022-10-21T11:29:52.789Z,18.80
2022-10-21T11:35:17.351Z,8.63
2022-10-21T11:40:25.620Z,8.85
2022-10-21T11:45:38.572Z,26.25
2022-10-21T11:50:47.462Z,9.95
2022-10-21T11:55:53.964Z,9.48
2022-10-21T12:01:04.535Z,11.38
2022-10-21T12:06:12.994Z,10.43
2022-10-21T12:11:16.759Z,5.20
2022-10-21T12:16:19.942Z,9.13
2022-10-21T12:21:22.914Z,5.65
2022-10-21T12:26:31.956Z,30.90
2022-10-21T12:31:45.468Z,5.70
2022-10-21T12:36:49.479Z,10.88
2022-10-21T12:41:49.791Z,6.78
2022-10-21T12:47:03.837Z,6.35
2022-10-21T12:52:10.430Z,7.05
2022-10-21T12:57:11.229Z,8.20
2022-10-21T13:02:21.789Z,6.47
2022-10-21T13:07:35.239Z,4.25
2022-10-21T13:12:34.854Z,6.40
2022-10-21T13:17:50.874Z,5.37
2022-10-21T13:23:01.869Z,8.10
2022-10-21T13:28:06.821Z,8.63
2022-10-21T13:33:23.785Z,7.90
2022-10-21T13:38:43.107Z,5.97
2022-10-21T13:43:48.715Z,6.13
2022-10-21T13:48:50.224Z,5.68
2022-10-21T13:53:50.410Z,5.72
2022-10-21T13:58:51.673Z,6.38
2022-10-21T14:03:58.271Z,9.73
2022-10-21T14:08:57.835Z,8.65
2022-10-21T14:14:01.566Z,12.85
2022-10-21T14:19:06.389Z,12.13
2022-10-21T14:24:07.768Z,7.32
2022-10-21T14:29:06.896Z,8.52
2022-10-21T14:34:11.930Z,6.22
2022-10-21T14:39:20.975Z,10.48
2022-10-21T14:44:25.345Z,10.93
2022-10-21T14:49:28.714Z,9.75
2022-10-21T14:54:42.774Z,12.88
2022-10-21T14:59:44.604Z,8.75
2022-10-21T15:04:54.884Z,11.90
2022-10-21T15:10:18.653Z,9.33
2022-10-21T15:15:53.305Z,14.18
2022-10-21T15:20:57.311Z,19.08
2022-10-21T15:26:00.569Z,12.85
2022-10-21T15:31:00.248Z,16.13
2022-10-21T15:36:05.223Z,12.15
2022-10-21T15:41:04.680Z,12.60
2022-10-21T15:46:03.526Z,11.98
2022-10-21T15:51:03.763Z,15.80
2022-10-21T15:56:02.819Z,32.67
2022-10-21T16:01:01.618Z,28.20
2022-10-21T16:06:00.609Z,25.05
2022-10-21T16:11:00.985Z,11.95
2022-10-21T16:15:59.867Z,20.27
2022-10-21T16:20:59.035Z,22.60
2022-10-21T16:25:58.187Z,24.40
2022-10-21T16:30:59.318Z,23.83
2022-10-21T16:35:58.129Z,21.65
2022-10-21T16:40:57.015Z,20.75
2022-10-21T16:45:55.786Z,24.73
2022-10-21T16:50:58.006Z,18.23
2022-10-21T16:55:58.123Z,30.55
2022-10-21T17:00:57.806Z,17.83
2022-10-21T17:05:58.179Z,16.55
2022-10-21T17:10:57.193Z,16.00
2022-10-21T17:15:57.989Z,15.52
2022-10-21T17:20:58.324Z,14.73
2022-10-21T17:25:58.369Z,12.27
2022-10-21T17:30:57.897Z,13.52
2022-10-21T17:36:00.782Z,14.23
2022-10-21T17:40:59.625Z,14.10
2022-10-21T17:45:58.918Z,14.15
2022-10-21T17:51:04.673Z,16.75
2022-10-21T17:56:07.059Z,15.95
2022-10-21T18:01:09.257Z,13.35
2022-10-21T18:06:23.229Z,10.90
2022-10-21T18:11:24.282Z,15.63
2022-10-21T18:16:26.390Z,14.85
2022-10-21T18:21:26.682Z,14.20
2022-10-21T18:26:28.258Z,16.08
2022-10-21T18:31:30.950Z,15.10
2022-10-21T18:36:31.389Z,16.70
2022-10-21T18:41:35.898Z,14.98
2022-10-21T18:46:39.240Z,17.25
2022-10-21T18:51:39.934Z,45.70
2022-10-21T18:56:38.834Z,48.97
2022-10-21T19:01:38.005Z,94.80
2022-10-21T19:06:43.827Z,46.25
2022-10-21T19:11:46.260Z,28.30
2022-10-21T19:16:47.485Z,24.77
2022-10-21T19:21:51.611Z,20.80
2022-10-21T19:26:54.342Z,22.00
2022-10-21T19:31:55.701Z,24.30
2022-10-21T19:36:57.234Z,19.67
2022-10-21T19:41:56.345Z,23.17
2022-10-21T19:46:55.266Z,17.23
2022-10-21T19:51:56.630Z,19.08
2022-10-21T19:56:57.090Z,19.23
2022-10-21T20:01:56.121Z,16.48
2022-10-21T20:06:55.299Z,18.88
2022-10-21T20:11:57.710Z,12.95
2022-10-21T20:16:56.818Z,11.88
2022-10-21T20:21:55.899Z,10.40
2022-10-21T20:26:58.417Z,10.38
2022-10-21T20:32:01.558Z,10.25
2022-10-21T20:37:00.362Z,9.93
2022-10-21T20:41:59.290Z,12.50
2022-10-21T20:46:58.177Z,8.55
2022-10-21T20:51:58.535Z,12.65
2022-10-21T20:56:57.325Z,8.40
2022-10-21T21:01:56.230Z,8.48
2022-10-21T21:06:55.336Z,7.93
2022-10-21T21:11:55.621Z,6.90
2022-10-21T21:16:54.509Z,7.25
2022-10-21T21:21:53.736Z,10.02
2022-10-21T21:26:52.792Z,12.80
2022-10-21T21:31:53.148Z,14.32
2022-10-21T21:36:52.076Z,19.00
2022-10-21T21:41:51.006Z,16.25
2022-10-21T21:46:50.137Z,10.80
2022-10-21T21:51:50.345Z,12.15
2022-10-21T21:56:52.054Z,7.88
2022-10-21T22:01:56.278Z,13.75
2022-10-21T22:07:01.834Z,9.95
2022-10-21T22:12:01.744Z,9.55
2022-10-21T22:17:00.589Z,11.05
2022-10-21T22:22:00.920Z,10.25
2022-10-21T22:26:59.726Z,14.15
2022-10-21T22:31:58.475Z,13.98
2022-10-21T22:36:57.331Z,12.88
2022-10-21T22:41:57.682Z,14.10
2022-10-21T22:46:56.480Z,11.73
2022-10-21T22:51:55.278Z,11.52
2022-10-21T22:56:54.059Z,10.52
2022-10-21T23:01:54.825Z,10.50
2022-10-21T23:06:53.771Z,9.30
2022-10-21T23:11:52.773Z,14.93
2022-10-21T23:16:52.444Z,10.27
2022-10-21T23:21:52.611Z,9.52
2022-10-21T23:26:51.539Z,15.20
2022-10-21T23:31:50.397Z,13.40
2022-10-21T23:36:49.371Z,21.30
2022-10-21T23:41:49.682Z,11.95
2022-10-21T23:46:48.512Z,15.13
2022-10-21T23:51:47.370Z,17.50
2022-10-21T23:56:46.676Z,16.42
